createdAt,value
2019-01-19T00:00:11.295Z,0
2019-01-19T00:01:11.363Z,0
2019-01-19T00:02:11.243Z,3.9
2019-01-19T00:03:11.293Z,0
2019-01-19T00:04:11.349Z,0
2019-01-19T00:05:13.152Z,0
2019-01-19T00:06:11.299Z,0
2019-01-19T00:07:11.355Z,0
2019-01-19T00:08:11.234Z,0
2019-01-19T00:09:11.299Z,0
2019-01-19T00:10:11.374Z,0
2019-01-19T00:11:11.329Z,6.6
2019-01-19T00:12:11.329Z,9.5
2019-01-19T00:13:11.284Z,12.4
2019-01-19T00:14:11.372Z,9.5
2019-01-19T00:15:12.968Z,9.5
2019-01-19T00:16:11.317Z,6.6
2019-01-19T00:17:11.313Z,3.9
2019-01-19T00:18:11.337Z,0
2019-01-19T00:19:11.341Z,0
2019-01-19T00:20:11.390Z,0
2019-01-19T00:21:11.319Z,1.8
2019-01-19T00:22:11.319Z,3.9
2019-01-19T00:23:11.317Z,3.9
2019-01-19T00:24:11.337Z,3.9
2019-01-19T00:25:11.316Z,3.9
2019-01-19T00:26:11.385Z,1.8
2019-01-19T00:27:11.334Z,0
2019-01-19T00:28:11.396Z,0
2019-01-19T00:29:11.265Z,0
2019-01-19T00:30:11.356Z,0
2019-01-19T00:31:11.314Z,0
2019-01-19T00:32:11.387Z,0
2019-01-19T00:33:11.314Z,0
2019-01-19T00:34:11.314Z,0
2019-01-19T00:35:17.581Z,0
2019-01-19T00:36:11.298Z,0
2019-01-19T00:37:11.389Z,0
2019-01-19T00:38:11.301Z,0
2019-01-19T00:39:11.284Z,0
2019-01-19T00:40:11.280Z,0
2019-01-19T00:41:11.313Z,3.9
2019-01-19T00:42:11.381Z,3.9
2019-01-19T00:43:11.297Z,0
2019-01-19T00:44:11.306Z,0
2019-01-19T00:45:11.310Z,0
2019-01-19T00:46:11.315Z,0
2019-01-19T00:47:11.302Z,0
2019-01-19T00:48:11.368Z,0
2019-01-19T00:49:11.302Z,0
2019-01-19T00:50:11.305Z,0
2019-01-19T00:51:11.239Z,0
2019-01-19T00:52:11.291Z,0
2019-01-19T00:53:11.386Z,0
2019-01-19T00:54:11.294Z,0
2019-01-19T00:55:11.300Z,0
2019-01-19T00:56:11.289Z,1.8
2019-01-19T00:57:11.321Z,0
2019-01-19T00:58:11.304Z,0
2019-01-19T00:59:11.310Z,0
2019-01-19T01:00:11.370Z,0
2019-01-19T01:01:11.296Z,0
2019-01-19T01:02:11.248Z,3.9
2019-01-19T01:03:11.346Z,6.6
2019-01-19T01:04:11.302Z,9.5
2019-01-19T01:05:11.323Z,9.5
2019-01-19T01:06:11.292Z,9.5
2019-01-19T01:07:11.942Z,9.5
2019-01-19T01:08:11.246Z,9.5
2019-01-19T01:09:11.281Z,12.4
2019-01-19T01:10:11.316Z,9.5
2019-01-19T01:11:11.311Z,9.5
2019-01-19T01:12:11.364Z,12.4
2019-01-19T01:13:11.242Z,12.4
2019-01-19T01:14:11.303Z,9.5
2019-01-19T01:15:11.302Z,6.6
2019-01-19T01:16:11.347Z,6.6
2019-01-19T01:17:11.281Z,3.9
2019-01-19T01:18:11.322Z,1.8
2019-01-19T01:19:11.218Z,3.9
2019-01-19T01:20:11.277Z,3.9
2019-01-19T01:21:11.295Z,6.6
2019-01-19T01:22:11.297Z,6.6
2019-01-19T01:23:11.354Z,6.6
2019-01-19T01:24:11.234Z,9.5
2019-01-19T01:25:11.358Z,9.5
2019-01-19T01:26:11.281Z,9.5
2019-01-19T01:27:11.349Z,1.8
2019-01-19T01:28:11.291Z,3.9
2019-01-19T01:29:11.313Z,3.9
2019-01-19T01:30:11.307Z,1.8
2019-01-19T01:31:11.288Z,1.8
2019-01-19T01:32:11.295Z,0
2019-01-19T01:33:11.279Z,1.8
2019-01-19T01:34:11.360Z,0
2019-01-19T01:35:11.245Z,1.8
2019-01-19T01:36:11.322Z,3.9
2019-01-19T01:37:11.242Z,1.8
2019-01-19T01:38:11.277Z,1.8
2019-01-19T01:39:11.357Z,0
2019-01-19T01:40:11.250Z,1.8
2019-01-19T01:41:11.237Z,0
2019-01-19T01:42:11.277Z,0
2019-01-19T01:43:11.282Z,3.9
2019-01-19T01:44:11.380Z,3.9
2019-01-19T01:45:11.337Z,3.9
2019-01-19T01:46:11.224Z,1.8
2019-01-19T01:47:11.285Z,3.9
2019-01-19T01:48:11.274Z,0
2019-01-19T01:49:11.365Z,9.5
2019-01-19T01:50:11.295Z,9.5
2019-01-19T01:51:11.225Z,9.5
2019-01-19T01:52:11.347Z,9.5
2019-01-19T01:53:11.272Z,6.6
2019-01-19T01:54:11.278Z,6.6
2019-01-19T01:55:11.268Z,12.4
2019-01-19T01:56:11.325Z,12.4
2019-01-19T01:57:11.237Z,6.6
2019-01-19T01:58:11.277Z,1.8
2019-01-19T01:59:11.340Z,1.8
2019-01-19T02:00:14.194Z,3.9
2019-01-19T02:01:11.340Z,1.8
2019-01-19T02:02:11.226Z,6.6
2019-01-19T02:03:11.270Z,6.6
2019-01-19T02:04:11.268Z,0
2019-01-19T02:05:11.274Z,3.9
2019-01-19T02:06:11.320Z,6.6
2019-01-19T02:07:11.236Z,9.5
2019-01-19T02:08:11.320Z,9.5
2019-01-19T02:09:11.252Z,6.6
2019-01-19T02:10:11.257Z,6.6
2019-01-19T02:11:11.305Z,6.6
2019-01-19T02:12:11.274Z,6.6
2019-01-19T02:13:11.233Z,3.9
2019-01-19T02:14:11.271Z,3.9
2019-01-19T02:15:11.337Z,3.9
2019-01-19T02:16:11.265Z,6.6
2019-01-19T02:17:11.257Z,6.6
2019-01-19T02:18:11.238Z,6.6
2019-01-19T02:19:11.242Z,9.5
2019-01-19T02:20:11.259Z,9.5
2019-01-19T02:21:11.270Z,9.5
2019-01-19T02:22:11.270Z,6.6
2019-01-19T02:23:11.330Z,6.6
2019-01-19T02:24:11.221Z,6.6
2019-01-19T02:25:11.251Z,6.6
2019-01-19T02:26:11.331Z,6.6
2019-01-19T02:27:11.259Z,6.6
2019-01-19T02:28:11.255Z,6.6
2019-01-19T02:29:11.291Z,6.6
2019-01-19T02:30:11.353Z,6.6
2019-01-19T02:31:11.262Z,3.9
2019-01-19T02:32:11.271Z,0
2019-01-19T02:33:11.274Z,0
2019-01-19T02:34:11.264Z,0
2019-01-19T02:35:11.336Z,0
2019-01-19T02:36:11.276Z,0
2019-01-19T02:37:11.261Z,0
2019-01-19T02:38:11.261Z,0
2019-01-19T02:39:11.250Z,0
2019-01-19T02:40:11.288Z,3.9
2019-01-19T02:41:11.252Z,0
2019-01-19T02:42:11.266Z,0
2019-01-19T02:43:11.249Z,0
2019-01-19T02:44:11.255Z,0
2019-01-19T02:45:11.334Z,0
2019-01-19T02:46:11.207Z,0
2019-01-19T02:47:11.259Z,0
2019-01-19T02:48:11.253Z,0
2019-01-19T02:49:11.304Z,0
2019-01-19T02:50:11.246Z,0
2019-01-19T02:51:11.271Z,0
2019-01-19T02:52:11.276Z,0
2019-01-19T02:53:11.317Z,0
2019-01-19T02:54:11.253Z,0
2019-01-19T02:55:11.267Z,0
2019-01-19T02:56:11.274Z,0
2019-01-19T02:57:11.201Z,0
2019-01-19T02:58:11.310Z,0
2019-01-19T02:59:11.249Z,0
2019-01-19T03:00:11.249Z,0
2019-01-19T03:01:11.333Z,0
2019-01-19T03:02:11.266Z,1.8
2019-01-19T03:03:11.307Z,1.8
2019-01-19T03:04:11.238Z,1.8
2019-01-19T03:05:11.227Z,0
2019-01-19T03:06:11.317Z,3.9
2019-01-19T03:07:11.200Z,0
2019-01-19T03:08:11.278Z,0
2019-01-19T03:09:11.224Z,0
2019-01-19T03:10:11.240Z,0
2019-01-19T03:11:11.245Z,0
2019-01-19T03:12:11.238Z,0
2019-01-19T03:13:11.243Z,0
2019-01-19T03:14:11.293Z,0
2019-01-19T03:15:11.250Z,0
2019-01-19T03:16:11.308Z,0
2019-01-19T03:17:11.268Z,0
2019-01-19T03:18:11.206Z,3.9
2019-01-19T03:19:11.237Z,1.8
2019-01-19T03:20:11.240Z,1.8
2019-01-19T03:21:11.313Z,0
2019-01-19T03:22:11.231Z,0
2019-01-19T03:23:11.239Z,3.9
2019-01-19T03:24:11.306Z,3.9
2019-01-19T03:25:11.296Z,3.9
2019-01-19T03:26:11.242Z,1.8
2019-01-19T03:27:11.224Z,0
2019-01-19T03:28:11.245Z,0
2019-01-19T03:29:11.271Z,0
2019-01-19T03:30:11.283Z,0
2019-01-19T03:31:11.237Z,0
2019-01-19T03:32:11.243Z,0
2019-01-19T03:33:11.253Z,0
2019-01-19T03:34:11.323Z,0
2019-01-19T03:35:11.179Z,0
2019-01-19T03:36:11.242Z,0
2019-01-19T03:37:11.222Z,0
2019-01-19T03:38:11.245Z,0
2019-01-19T03:39:11.301Z,0
2019-01-19T03:40:11.191Z,0
2019-01-19T03:41:11.235Z,0
2019-01-19T03:42:11.242Z,0
2019-01-19T03:43:11.222Z,0
2019-01-19T03:44:11.273Z,0
2019-01-19T03:45:11.311Z,0
2019-01-19T03:46:11.280Z,0
2019-01-19T03:47:11.231Z,0
2019-01-19T03:48:11.248Z,0
2019-01-19T03:49:11.228Z,0
2019-01-19T03:50:11.221Z,0
2019-01-19T03:51:11.248Z,0
2019-01-19T03:52:11.223Z,0
2019-01-19T03:53:11.215Z,0
2019-01-19T03:54:11.227Z,0
2019-01-19T03:55:11.312Z,0
2019-01-19T03:56:11.253Z,0
2019-01-19T03:57:11.480Z,0
2019-01-19T03:58:11.246Z,0
2019-01-19T03:59:11.218Z,0
2019-01-19T04:00:11.273Z,0
2019-01-19T04:01:11.231Z,0
2019-01-19T04:02:11.167Z,0
2019-01-19T04:03:11.216Z,0
2019-01-19T04:04:11.216Z,0
2019-01-19T04:05:11.348Z,0
2019-01-19T04:06:15.226Z,0
2019-01-19T04:07:11.174Z,0
2019-01-19T04:08:11.280Z,0
2019-01-19T04:09:11.220Z,0
2019-01-19T04:10:11.216Z,0
2019-01-19T04:11:11.209Z,0
2019-01-19T04:12:11.237Z,0
2019-01-19T04:13:11.252Z,0
2019-01-19T04:14:11.321Z,0
2019-01-19T04:15:11.211Z,0
2019-01-19T04:16:11.209Z,0
2019-01-19T04:17:11.214Z,0
2019-01-19T04:18:11.235Z,0
2019-01-19T04:19:11.228Z,0
2019-01-19T04:20:11.226Z,0
2019-01-19T04:21:11.285Z,0
2019-01-19T04:22:11.214Z,0
2019-01-19T04:23:11.206Z,0
2019-01-19T04:24:11.163Z,0
2019-01-19T04:25:11.278Z,0
2019-01-19T04:26:11.292Z,0
2019-01-19T04:27:11.207Z,0
2019-01-19T04:28:11.206Z,0
2019-01-19T04:29:21.059Z,0
2019-01-19T04:30:11.231Z,0
2019-01-19T04:31:11.274Z,0
2019-01-19T04:32:11.195Z,0
2019-01-19T04:33:11.195Z,0
2019-01-19T04:34:11.214Z,0
2019-01-19T04:35:11.208Z,1.8
2019-01-19T04:36:11.265Z,3.9
2019-01-19T04:37:11.226Z,6.6
2019-01-19T04:38:11.216Z,6.6
2019-01-19T04:39:11.203Z,3.9
2019-01-19T04:40:11.173Z,6.6
2019-01-19T04:41:11.279Z,6.6
2019-01-19T04:42:11.201Z,1.8
2019-01-19T04:43:11.267Z,3.9
2019-01-19T04:44:11.205Z,0
2019-01-19T04:45:11.225Z,3.9
2019-01-19T04:46:11.183Z,6.6
2019-01-19T04:47:11.279Z,1.8
2019-01-19T04:48:11.214Z,1.8
2019-01-19T04:49:11.148Z,1.8
2019-01-19T04:50:11.166Z,3.9
2019-01-19T04:51:11.151Z,1.8
2019-01-19T04:52:11.259Z,1.8
2019-01-19T04:53:11.320Z,1.8
2019-01-19T04:54:11.185Z,0
2019-01-19T04:55:11.271Z,0
2019-01-19T04:56:11.158Z,0
2019-01-19T04:57:11.199Z,0
2019-01-19T04:58:11.258Z,0
2019-01-19T04:59:11.270Z,0
2019-01-19T05:00:11.266Z,0
2019-01-19T05:01:11.188Z,0
2019-01-19T05:02:11.165Z,0
2019-01-19T05:03:11.299Z,0
2019-01-19T05:04:11.217Z,0
2019-01-19T05:05:11.278Z,0
2019-01-19T05:06:15.040Z,0
2019-01-19T05:07:11.216Z,0
2019-01-19T05:08:11.189Z,0
2019-01-19T05:09:11.189Z,0
2019-01-19T05:10:11.190Z,0
2019-01-19T05:11:11.190Z,0
2019-01-19T05:12:11.373Z,0
2019-01-19T05:13:11.144Z,0
2019-01-19T05:14:11.186Z,0
2019-01-19T05:15:11.201Z,0
2019-01-19T05:16:11.183Z,0
2019-01-19T05:17:11.558Z,0
2019-01-19T05:18:11.168Z,0
2019-01-19T05:19:11.671Z,0
2019-01-19T05:20:13.514Z,0
2019-01-19T05:21:11.433Z,0
2019-01-19T05:22:11.389Z,0
2019-01-19T05:23:13.271Z,0
2019-01-19T05:24:11.314Z,0
2019-01-19T05:25:11.419Z,0
2019-01-19T05:26:11.331Z,0
2019-01-19T05:27:11.318Z,0
2019-01-19T05:28:11.342Z,0
2019-01-19T05:29:11.291Z,0
2019-01-19T05:30:11.355Z,0
2019-01-19T05:31:11.370Z,0
2019-01-19T05:32:11.361Z,0
2019-01-19T05:33:11.360Z,0
2019-01-19T05:34:13.784Z,0
2019-01-19T05:35:11.308Z,0
2019-01-19T05:36:11.308Z,0
2019-01-19T05:37:11.419Z,0
2019-01-19T05:38:11.564Z,0
2019-01-19T05:39:11.366Z,0
2019-01-19T05:40:11.284Z,0
2019-01-19T05:41:11.437Z,0
2019-01-19T05:42:11.251Z,0
2019-01-19T05:43:11.359Z,3.9
2019-01-19T05:44:11.443Z,3.9
2019-01-19T05:45:14.223Z,3.9
2019-01-19T05:46:11.260Z,1.8
2019-01-19T05:47:11.346Z,0
2019-01-19T05:48:11.296Z,1.8
2019-01-19T05:49:11.349Z,1.8
2019-01-19T05:50:11.293Z,3.9
2019-01-19T05:51:11.255Z,1.8
2019-01-19T05:52:11.309Z,1.8
2019-01-19T05:53:11.378Z,3.9
2019-01-19T05:54:11.309Z,1.8
2019-01-19T05:55:11.408Z,0
2019-01-19T05:56:11.266Z,0
2019-01-19T05:57:11.409Z,0
2019-01-19T05:58:11.282Z,0
2019-01-19T05:59:11.357Z,0
2019-01-19T06:00:11.391Z,0
2019-01-19T06:01:11.205Z,0
2019-01-19T06:02:11.121Z,0
2019-01-19T06:03:11.109Z,0
2019-01-19T06:04:11.374Z,0
2019-01-19T06:05:11.177Z,0
2019-01-19T06:06:11.226Z,0
2019-01-19T06:07:11.141Z,0
2019-01-19T06:08:11.155Z,0
2019-01-19T06:09:11.236Z,0
2019-01-19T06:10:11.153Z,0
2019-01-19T06:11:11.174Z,0
2019-01-19T06:12:11.193Z,0
2019-01-19T06:13:11.124Z,0
2019-01-19T06:14:11.247Z,0
2019-01-19T06:15:11.161Z,0
2019-01-19T06:16:11.188Z,0
2019-01-19T06:17:11.162Z,0
2019-01-19T06:18:11.123Z,0
2019-01-19T06:19:14.650Z,0
2019-01-19T06:20:14.762Z,3.9
2019-01-19T06:21:12.849Z,3.9
2019-01-19T06:22:12.337Z,3.9
2019-01-19T06:23:12.815Z,3.9
2019-01-19T06:24:12.209Z,3.9
2019-01-19T06:25:13.259Z,1.8
2019-01-19T06:26:13.584Z,1.8
2019-01-19T06:27:13.491Z,1.8
2019-01-19T06:28:16.161Z,1.8
2019-01-19T06:29:11.260Z,1.8
2019-01-19T06:30:12.967Z,3.9
2019-01-19T06:31:12.535Z,3.9
2019-01-19T06:32:12.919Z,3.9
2019-01-19T06:33:12.928Z,3.9
2019-01-19T06:34:13.850Z,6.6
2019-01-19T06:35:13.775Z,6.6
2019-01-19T06:36:11.100Z,6.6
2019-01-19T06:37:11.139Z,6.6
2019-01-19T06:38:11.203Z,3.9
2019-01-19T06:39:11.149Z,6.6
2019-01-19T06:40:11.168Z,6.6
2019-01-19T06:41:11.127Z,3.9
2019-01-19T06:42:11.894Z,3.9
2019-01-19T06:43:11.201Z,3.9
2019-01-19T06:44:11.234Z,3.9
2019-01-19T06:45:11.101Z,3.9
2019-01-19T06:46:11.120Z,3.9
2019-01-19T06:47:11.142Z,3.9
2019-01-19T06:48:11.125Z,3.9
2019-01-19T06:49:11.206Z,3.9
2019-01-19T06:50:11.130Z,6.6
2019-01-19T06:51:11.093Z,3.9
2019-01-19T06:52:12.314Z,6.6
2019-01-19T06:53:11.143Z,6.6
2019-01-19T06:54:11.178Z,6.6
2019-01-19T06:55:11.147Z,6.6
2019-01-19T06:56:11.150Z,6.6
2019-01-19T06:57:11.112Z,6.6
2019-01-19T06:58:11.152Z,6.6
2019-01-19T06:59:18.575Z,6.6
2019-01-19T07:00:11.100Z,6.6
2019-01-19T07:01:11.152Z,1.8
2019-01-19T07:02:11.088Z,3.9
2019-01-19T07:03:11.191Z,3.9
2019-01-19T07:04:11.086Z,3.9
2019-01-19T07:05:11.389Z,6.6
2019-01-19T07:06:11.106Z,3.9
2019-01-19T07:07:11.133Z,3.9
2019-01-19T07:08:13.355Z,1.8
2019-01-19T07:09:11.231Z,3.9
2019-01-19T07:10:11.800Z,3.9
2019-01-19T07:11:11.085Z,3.9
2019-01-19T07:12:12.000Z,3.9
2019-01-19T07:13:11.090Z,1.8
2019-01-19T07:14:11.198Z,0
2019-01-19T07:15:11.090Z,0
2019-01-19T07:16:11.527Z,0
2019-01-19T07:17:13.129Z,0
2019-01-19T07:18:11.072Z,3.9
2019-01-19T07:19:11.121Z,1.8
2019-01-19T07:20:11.122Z,0
2019-01-19T07:21:11.118Z,0
2019-01-19T07:22:11.221Z,6.6
2019-01-19T07:23:11.129Z,6.6
2019-01-19T07:24:11.437Z,9.5
2019-01-19T07:25:11.100Z,6.6
2019-01-19T07:26:12.728Z,6.6
2019-01-19T07:27:11.210Z,3.9
2019-01-19T07:28:11.196Z,6.6
2019-01-19T07:29:11.060Z,6.6
2019-01-19T07:30:11.154Z,6.6
2019-01-19T07:31:11.121Z,6.6
2019-01-19T07:32:11.174Z,6.6
2019-01-19T07:33:11.149Z,6.6
2019-01-19T07:34:11.070Z,6.6
2019-01-19T07:35:11.078Z,1.8
2019-01-19T07:36:11.182Z,3.9
2019-01-19T07:37:12.375Z,1.8
2019-01-19T07:38:11.116Z,3.9
2019-01-19T07:39:11.069Z,0
2019-01-19T07:40:11.066Z,3.9
2019-01-19T07:41:11.153Z,3.9
2019-01-19T07:42:11.198Z,3.9
2019-01-19T07:43:11.318Z,3.9
2019-01-19T07:44:11.125Z,1.8
2019-01-19T07:45:11.082Z,6.6
2019-01-19T07:46:11.153Z,6.6
2019-01-19T07:47:11.117Z,3.9
2019-01-19T07:48:11.186Z,0
2019-01-19T07:49:11.110Z,1.8
2019-01-19T07:50:11.097Z,1.8
2019-01-19T07:51:12.657Z,0
2019-01-19T07:52:11.105Z,3.9
2019-01-19T07:53:11.203Z,1.8
2019-01-19T07:54:11.059Z,1.8
2019-01-19T07:55:11.160Z,1.8
2019-01-19T07:56:11.079Z,0
2019-01-19T07:57:11.051Z,0
2019-01-19T07:58:11.155Z,0
2019-01-19T07:59:11.092Z,0
2019-01-19T08:00:11.109Z,0
2019-01-19T08:01:11.105Z,0
2019-01-19T08:02:11.039Z,0
2019-01-19T08:03:12.952Z,0
2019-01-19T08:04:14.906Z,0
2019-01-19T08:05:15.719Z,0
2019-01-19T08:06:16.112Z,0
2019-01-19T08:07:23.146Z,0
2019-01-19T08:08:14.251Z,0
2019-01-19T08:09:14.615Z,0
2019-01-19T08:10:23.766Z,0
2019-01-19T08:11:15.739Z,0
2019-01-19T08:12:18.148Z,0
2019-01-19T08:13:14.553Z,0
2019-01-19T08:14:14.787Z,0
2019-01-19T08:15:11.170Z,0
2019-01-19T08:16:11.154Z,0
2019-01-19T08:17:11.847Z,0
2019-01-19T08:18:11.050Z,0
2019-01-19T08:19:11.141Z,0
2019-01-19T08:20:11.092Z,0
2019-01-19T08:21:11.156Z,0
2019-01-19T08:22:11.162Z,0
2019-01-19T08:23:11.124Z,0
2019-01-19T08:24:11.085Z,0
2019-01-19T08:25:11.117Z,0
2019-01-19T08:26:11.084Z,0
2019-01-19T08:27:11.069Z,0
2019-01-19T08:28:11.092Z,0
2019-01-19T08:29:11.109Z,0
2019-01-19T08:30:11.106Z,0
2019-01-19T08:31:11.076Z,0
2019-01-19T08:32:11.077Z,0
2019-01-19T08:33:11.077Z,0
2019-01-19T08:34:11.162Z,0
2019-01-19T08:35:11.022Z,0
2019-01-19T08:36:11.088Z,0
2019-01-19T08:37:11.078Z,0
2019-01-19T08:38:11.143Z,0
2019-01-19T08:39:11.072Z,0
2019-01-19T08:40:11.034Z,0
2019-01-19T08:41:11.082Z,0
2019-01-19T08:42:11.088Z,0
2019-01-19T08:43:11.137Z,0
2019-01-19T08:44:11.140Z,0
2019-01-19T08:45:11.043Z,0
2019-01-19T08:46:11.021Z,0
2019-01-19T08:47:11.083Z,0
2019-01-19T08:48:11.066Z,0
2019-01-19T08:49:11.148Z,0
2019-01-19T08:50:11.073Z,0
2019-01-19T08:51:11.018Z,0
2019-01-19T08:52:11.068Z,0
2019-01-19T08:53:11.069Z,0
2019-01-19T08:54:11.132Z,0
2019-01-19T08:55:11.091Z,0
2019-01-19T08:56:11.103Z,0
2019-01-19T08:57:11.087Z,0
2019-01-19T08:58:11.067Z,0
2019-01-19T08:59:11.082Z,0
2019-01-19T09:00:11.141Z,0
2019-01-19T09:01:11.074Z,0
2019-01-19T09:02:11.872Z,0
2019-01-19T09:03:11.073Z,0
2019-01-19T09:04:11.074Z,0
2019-01-19T09:05:11.165Z,0
2019-01-19T09:06:11.073Z,0
2019-01-19T09:07:11.031Z,0
2019-01-19T09:08:11.076Z,0
2019-01-19T09:09:11.073Z,1.8
2019-01-19T09:10:11.149Z,0
2019-01-19T09:11:11.065Z,0
2019-01-19T09:12:11.079Z,0
2019-01-19T09:13:11.031Z,0
2019-01-19T09:14:11.122Z,0
2019-01-19T09:15:11.079Z,0
2019-01-19T09:16:11.073Z,0
2019-01-19T09:17:11.081Z,0
2019-01-19T09:18:11.028Z,0
2019-01-19T09:19:11.171Z,0
2019-01-19T09:20:11.079Z,0
2019-01-19T09:21:11.086Z,0
2019-01-19T09:22:11.079Z,0
2019-01-19T09:23:11.164Z,0
2019-01-19T09:24:11.091Z,0
2019-01-19T09:25:11.062Z,0
2019-01-19T09:26:11.940Z,1.8
2019-01-19T09:27:11.082Z,3.9
2019-01-19T09:28:11.072Z,1.8
2019-01-19T09:29:11.099Z,1.8
2019-01-19T09:30:11.194Z,0
2019-01-19T09:31:11.147Z,0
2019-01-19T09:32:11.075Z,0
2019-01-19T09:33:11.088Z,1.8
2019-01-19T09:34:11.118Z,0
2019-01-19T09:35:11.039Z,0
2019-01-19T09:36:11.075Z,0
2019-01-19T09:37:11.085Z,0
2019-01-19T09:38:11.071Z,0
2019-01-19T09:39:11.145Z,0
2019-01-19T09:40:12.427Z,0
2019-01-19T09:41:11.080Z,0
2019-01-19T09:42:11.157Z,0
2019-01-19T09:43:11.071Z,0
2019-01-19T09:44:11.075Z,0
2019-01-19T09:45:11.042Z,1.8
2019-01-19T09:46:11.131Z,0
2019-01-19T09:47:11.073Z,0
2019-01-19T09:48:11.140Z,0
2019-01-19T09:49:11.086Z,0
2019-01-19T09:50:11.066Z,0
2019-01-19T09:51:11.092Z,0
2019-01-19T09:52:11.061Z,0
2019-01-19T09:53:11.069Z,0
2019-01-19T09:54:11.128Z,0
2019-01-19T09:55:11.083Z,1.8
2019-01-19T09:56:11.022Z,0
2019-01-19T09:57:11.072Z,0
2019-01-19T09:58:11.064Z,0
2019-01-19T09:59:11.141Z,0
2019-01-19T10:00:11.072Z,1.8
2019-01-19T10:01:11.124Z,0
2019-01-19T10:02:11.030Z,0
2019-01-19T10:03:11.079Z,0
2019-01-19T10:04:11.194Z,0
2019-01-19T10:05:11.067Z,0
2019-01-19T10:06:11.124Z,0
2019-01-19T10:07:11.042Z,0
2019-01-19T10:08:11.062Z,0
2019-01-19T10:09:11.140Z,0
2019-01-19T10:10:11.065Z,0
2019-01-19T10:11:11.133Z,0
2019-01-19T10:12:11.358Z,1.8
2019-01-19T10:13:11.021Z,0
2019-01-19T10:14:11.071Z,0
2019-01-19T10:15:11.145Z,0
2019-01-19T10:16:11.053Z,0
2019-01-19T10:17:11.071Z,0
2019-01-19T10:18:11.025Z,3.9
2019-01-19T10:19:11.088Z,0
2019-01-19T10:20:11.135Z,1.8
2019-01-19T10:21:11.070Z,0
2019-01-19T10:22:11.133Z,3.9
2019-01-19T10:23:11.129Z,0
2019-01-19T10:24:11.082Z,0
2019-01-19T10:25:11.065Z,0
2019-01-19T10:26:11.138Z,0
2019-01-19T10:27:11.060Z,0
2019-01-19T10:28:11.070Z,0
2019-01-19T10:29:11.021Z,6.6
2019-01-19T10:30:11.129Z,6.6
2019-01-19T10:31:11.215Z,3.9
2019-01-19T10:32:11.071Z,0
2019-01-19T10:33:11.069Z,3.9
2019-01-19T10:34:11.012Z,3.9
2019-01-19T10:35:11.015Z,6.6
2019-01-19T10:36:11.118Z,3.9
2019-01-19T10:37:11.056Z,9.5
2019-01-19T10:38:11.057Z,9.5
2019-01-19T10:39:11.065Z,9.5
2019-01-19T10:40:11.036Z,12.4
2019-01-19T10:41:11.066Z,15.4
2019-01-19T10:42:11.120Z,9.5
2019-01-19T10:43:11.068Z,6.6
2019-01-19T10:44:11.070Z,6.6
2019-01-19T10:45:11.156Z,6.6
2019-01-19T10:46:11.016Z,1.8
2019-01-19T10:47:11.063Z,3.9
2019-01-19T10:48:11.071Z,6.6
2019-01-19T10:49:11.069Z,3.9
2019-01-19T10:50:11.143Z,6.6
2019-01-19T10:51:11.018Z,3.9
2019-01-19T10:52:11.073Z,6.6
2019-01-19T10:53:11.074Z,3.9
2019-01-19T10:54:11.071Z,3.9
2019-01-19T10:55:11.112Z,6.6
2019-01-19T10:56:11.012Z,1.8
2019-01-19T10:57:11.105Z,3.9
2019-01-19T10:58:11.151Z,6.6
2019-01-19T10:59:11.070Z,6.6
2019-01-19T11:00:11.066Z,9.5
2019-01-19T11:01:11.079Z,1.8
2019-01-19T11:02:11.015Z,3.9
2019-01-19T11:03:11.139Z,3.9
2019-01-19T11:04:11.065Z,3.9
2019-01-19T11:05:11.069Z,6.6
2019-01-19T11:06:11.070Z,12.4
2019-01-19T11:07:11.000Z,3.9
2019-01-19T11:08:11.152Z,6.6
2019-01-19T11:09:11.088Z,3.9
2019-01-19T11:10:11.073Z,9.5
2019-01-19T11:11:11.078Z,6.6
2019-01-19T11:12:11.032Z,1.8
2019-01-19T11:13:11.110Z,3.9
2019-01-19T11:14:11.061Z,3.9
2019-01-19T11:15:11.070Z,9.5
2019-01-19T11:16:11.134Z,6.6
2019-01-19T11:17:11.072Z,9.5
2019-01-19T11:18:11.014Z,3.9
2019-01-19T11:19:11.058Z,1.8
2019-01-19T11:20:11.107Z,9.5
2019-01-19T11:21:11.120Z,3.9
2019-01-19T11:22:11.065Z,6.6
2019-01-19T11:23:11.020Z,6.6
2019-01-19T11:24:11.128Z,3.9
2019-01-19T11:25:11.057Z,1.8
2019-01-19T11:26:11.188Z,9.5
2019-01-19T11:27:11.129Z,12.4
2019-01-19T11:28:11.065Z,3.9
2019-01-19T11:29:11.017Z,3.9
2019-01-19T11:30:11.085Z,3.9
2019-01-19T11:31:11.077Z,3.9
2019-01-19T11:32:11.125Z,9.5
2019-01-19T11:33:11.092Z,1.8
2019-01-19T11:34:11.031Z,9.5
2019-01-19T11:35:11.072Z,3.9
2019-01-19T11:36:11.140Z,3.9
2019-01-19T11:37:11.112Z,6.6
2019-01-19T11:38:21.261Z,6.6
2019-01-19T11:39:11.056Z,9.5
2019-01-19T11:40:11.015Z,3.9
2019-01-19T11:41:11.143Z,6.6
2019-01-19T11:42:11.079Z,3.9
2019-01-19T11:43:11.075Z,3.9
2019-01-19T11:44:11.207Z,0
2019-01-19T11:45:11.026Z,3.9
2019-01-19T11:46:11.083Z,0
2019-01-19T11:47:11.049Z,1.8
2019-01-19T11:48:11.077Z,3.9
2019-01-19T11:49:11.133Z,0
2019-01-19T11:50:11.081Z,0
2019-01-19T11:51:11.022Z,6.6
2019-01-19T11:52:11.089Z,6.6
2019-01-19T11:53:11.141Z,0
2019-01-19T11:54:11.072Z,0
2019-01-19T11:55:11.071Z,0
2019-01-19T11:56:14.643Z,1.8
2019-01-19T11:57:21.021Z,1.8
2019-01-19T11:58:11.137Z,0
2019-01-19T11:59:11.060Z,0
2019-01-19T12:00:11.059Z,0
2019-01-19T12:01:11.022Z,9.5
2019-01-19T12:02:11.018Z,6.6
2019-01-19T12:03:11.134Z,3.9
2019-01-19T12:04:11.054Z,3.9
2019-01-19T12:05:11.089Z,3.9
2019-01-19T12:06:11.054Z,1.8
2019-01-19T12:07:11.089Z,1.8
2019-01-19T12:08:11.054Z,6.6
2019-01-19T12:09:11.127Z,3.9
2019-01-19T12:10:11.050Z,1.8
2019-01-19T12:11:11.065Z,6.6
2019-01-19T12:12:11.079Z,1.8
2019-01-19T12:13:11.058Z,3.9
2019-01-19T12:14:11.058Z,6.6
2019-01-19T12:15:11.725Z,1.8
2019-01-19T12:16:11.064Z,1.8
2019-01-19T12:17:11.117Z,1.8
2019-01-19T12:18:12.235Z,1.8
2019-01-19T12:19:11.071Z,9.5
2019-01-19T12:20:12.263Z,0
2019-01-19T12:21:11.145Z,0
2019-01-19T12:22:11.055Z,0
2019-01-19T12:23:11.021Z,1.8
2019-01-19T12:24:11.049Z,1.8
2019-01-19T12:25:11.057Z,3.9
2019-01-19T12:26:11.134Z,1.8
2019-01-19T12:27:11.061Z,0
2019-01-19T12:28:11.061Z,6.6
2019-01-19T12:29:11.011Z,1.8
2019-01-19T12:30:11.063Z,12.4
2019-01-19T12:31:11.122Z,3.9
2019-01-19T12:32:11.122Z,3.9
2019-01-19T12:33:11.143Z,9.5
2019-01-19T12:34:11.018Z,15.4
2019-01-19T12:35:11.078Z,1.8
2019-01-19T12:36:11.066Z,15.4
2019-01-19T12:37:11.071Z,9.5
2019-01-19T12:38:11.053Z,3.9
2019-01-19T12:39:11.130Z,15.4
2019-01-19T12:40:11.028Z,12.4
2019-01-19T12:41:11.062Z,3.9
2019-01-19T12:42:11.124Z,15.4
2019-01-19T12:43:11.072Z,12.4
2019-01-19T12:44:11.068Z,18.3
2019-01-19T12:45:11.082Z,18.3
2019-01-19T12:46:11.018Z,12.4
2019-01-19T12:47:11.051Z,9.5
2019-01-19T12:48:12.938Z,6.6
2019-01-19T12:49:11.066Z,6.6
2019-01-19T12:50:11.056Z,3.9
2019-01-19T12:51:11.010Z,15.4
2019-01-19T12:52:11.080Z,15.4
2019-01-19T12:53:11.116Z,3.9
2019-01-19T12:54:11.043Z,15.4
2019-01-19T12:55:11.046Z,6.6
2019-01-19T12:56:11.021Z,3.9
2019-01-19T12:57:11.070Z,15.4
2019-01-19T12:58:11.134Z,12.4
2019-01-19T12:59:11.068Z,18.3
2019-01-19T13:00:11.051Z,9.5
2019-01-19T13:01:11.023Z,3.9
2019-01-19T13:02:11.007Z,1.8
2019-01-19T13:03:11.107Z,1.8
2019-01-19T13:04:11.089Z,24.3
2019-01-19T13:05:11.068Z,12.4
2019-01-19T13:06:11.142Z,12.4
2019-01-19T13:07:11.012Z,15.4
2019-01-19T13:08:11.068Z,3.9
2019-01-19T13:09:15.008Z,0
2019-01-19T13:10:11.132Z,18.3
2019-01-19T13:11:11.138Z,15.4
2019-01-19T13:12:11.027Z,12.4
2019-01-19T13:13:11.058Z,6.6
2019-01-19T13:14:11.070Z,12.4
2019-01-19T13:15:11.126Z,18.3
2019-01-19T13:16:11.076Z,15.4
2019-01-19T13:17:11.114Z,3.9
2019-01-19T13:18:11.020Z,12.4
2019-01-19T13:19:11.075Z,21.3
2019-01-19T13:20:11.078Z,9.5
2019-01-19T13:21:11.109Z,27.3
2019-01-19T13:22:11.111Z,18.3
2019-01-19T13:23:11.100Z,3.9
2019-01-19T13:24:11.008Z,1.8
2019-01-19T13:25:11.132Z,6.6
2019-01-19T13:26:11.062Z,15.4
2019-01-19T13:27:11.124Z,3.9
2019-01-19T13:28:11.119Z,15.4
2019-01-19T13:29:11.013Z,3.9
2019-01-19T13:30:11.055Z,12.4
2019-01-19T13:31:11.062Z,1.8
2019-01-19T13:32:11.061Z,18.3
2019-01-19T13:33:11.120Z,21.3
2019-01-19T13:34:11.021Z,12.4
2019-01-19T13:35:11.006Z,18.3
2019-01-19T13:36:11.166Z,6.6
2019-01-19T13:37:11.118Z,21.3
2019-01-19T13:38:11.056Z,15.4
2019-01-19T13:39:11.048Z,6.6
2019-01-19T13:40:10.995Z,6.6
2019-01-19T13:41:11.062Z,18.3
2019-01-19T13:42:11.191Z,1.8
2019-01-19T13:43:11.058Z,9.5
2019-01-19T13:44:11.055Z,12.4
2019-01-19T13:45:11.004Z,12.4
2019-01-19T13:46:11.057Z,21.3
2019-01-19T13:47:11.124Z,18.3
2019-01-19T13:48:11.133Z,12.4
2019-01-19T13:49:11.107Z,9.5
2019-01-19T13:50:11.037Z,6.6
2019-01-19T13:51:11.014Z,6.6
2019-01-19T13:52:11.053Z,6.6
2019-01-19T13:53:11.121Z,6.6
2019-01-19T13:54:11.054Z,6.6
2019-01-19T13:55:11.341Z,12.4
2019-01-19T13:56:10.998Z,6.6
2019-01-19T13:57:11.793Z,18.3
2019-01-19T13:58:11.115Z,9.5
2019-01-19T13:59:11.182Z,6.6
2019-01-19T14:00:18.360Z,9.5
2019-01-19T14:01:11.029Z,12.4
2019-01-19T14:02:11.029Z,6.6
2019-01-19T14:03:11.048Z,9.5
2019-01-19T14:04:11.134Z,18.3
2019-01-19T14:05:11.046Z,6.6
2019-01-19T14:06:11.056Z,3.9
2019-01-19T14:07:11.073Z,12.4
2019-01-19T14:08:11.167Z,21.3
2019-01-19T14:09:11.052Z,18.3
2019-01-19T14:10:11.067Z,18.3
2019-01-19T14:11:11.111Z,3.9